sensor_id;sensor_type;location;lat;lon;timestamp;pressure;altitude;pressure_sealevel;temperature
24639;BMP180;1641;51.306;12.384;2023-02-28T00:00:48;101506.00;;;3.20
24639;BMP180;1641;51.306;12.384;2023-02-28T00:03:13;101499.00;;;3.10
24639;BMP180;1641;51.306;12.384;2023-02-28T00:05:38;101496.00;;;3.00
24639;BMP180;1641;51.306;12.384;2023-02-28T00:08:04;101487.00;;;2.90
24639;BMP180;1641;51.306;12.384;2023-02-28T00:10:30;101487.00;;;3.10
24639;BMP180;1641;51.306;12.384;2023-02-28T00:13:00;101494.00;;;3.30
24639;BMP180;1641;51.306;12.384;2023-02-28T00:15:26;101497.00;;;2.90
24639;BMP180;1641;51.306;12.384;2023-02-28T00:17:51;101493.00;;;2.40
24639;BMP180;1641;51.306;12.384;2023-02-28T00:20:17;101493.00;;;2.90
24639;BMP180;1641;51.306;12.384;2023-02-28T00:22:44;101442.00;;;3.20
24639;BMP180;1641;51.306;12.384;2023-02-28T00:25:12;101488.00;;;3.10
24639;BMP180;1641;51.306;12.384;2023-02-28T00:27:38;101490.00;;;2.90
24639;BMP180;1641;51.306;12.384;2023-02-28T00:30:06;101485.00;;;3.00
24639;BMP180;1641;51.306;12.384;2023-02-28T00:32:32;101484.00;;;3.10
24639;BMP180;1641;51.306;12.384;2023-02-28T00:34:57;101482.00;;;3.20
24639;BMP180;1641;51.306;12.384;2023-02-28T00:37:22;101490.00;;;3.10
24639;BMP180;1641;51.306;12.384;2023-02-28T00:39:48;101487.00;;;3.20
24639;BMP180;1641;51.306;12.384;2023-02-28T00:42:13;101443.00;;;3.30
24639;BMP180;1641;51.306;12.384;2023-02-28T00:44:38;101469.00;;;3.20
24639;BMP180;1641;51.306;12.384;2023-02-28T00:47:04;101477.00;;;2.70
24639;BMP180;1641;51.306;12.384;2023-02-28T00:49:29;101484.00;;;3.00
24639;BMP180;1641;51.306;12.384;2023-02-28T00:51:55;101462.00;;;3.20
24639;BMP180;1641;51.306;12.384;2023-02-28T00:54:23;101485.00;;;3.40
24639;BMP180;1641;51.306;12.384;2023-02-28T00:56:49;101481.00;;;3.10
24639;BMP180;1641;51.306;12.384;2023-02-28T00:59:18;101492.00;;;3.30
24639;BMP180;1641;51.306;12.384;2023-02-28T01:01:45;101491.00;;;3.40
24639;BMP180;1641;51.306;12.384;2023-02-28T01:04:11;101486.00;;;3.20
24639;BMP180;1641;51.306;12.384;2023-02-28T01:06:36;101493.00;;;2.90
24639;BMP180;1641;51.306;12.384;2023-02-28T01:09:03;101486.00;;;3.10
24639;BMP180;1641;51.306;12.384;2023-02-28T01:11:29;101481.00;;;3.00
24639;BMP180;1641;51.306;12.384;2023-02-28T01:13:54;101487.00;;;2.80
24639;BMP180;1641;51.306;12.384;2023-02-28T01:16:19;101475.00;;;2.70
24639;BMP180;1641;51.306;12.384;2023-02-28T01:18:45;101482.00;;;2.60
24639;BMP180;1641;51.306;12.384;2023-02-28T01:21:13;101483.00;;;2.70
24639;BMP180;1641;51.306;12.384;2023-02-28T01:23:41;101484.00;;;3.10
24639;BMP180;1641;51.306;12.384;2023-02-28T01:26:09;101488.00;;;2.90
24639;BMP180;1641;51.306;12.384;2023-02-28T01:28:35;101489.00;;;3.20
24639;BMP180;1641;51.306;12.384;2023-02-28T01:31:04;101480.00;;;3.10
24639;BMP180;1641;51.306;12.384;2023-02-28T01:33:29;101473.00;;;2.70
24639;BMP180;1641;51.306;12.384;2023-02-28T01:35:59;101444.00;;;2.60
24639;BMP180;1641;51.306;12.384;2023-02-28T01:38:24;101486.00;;;2.90
24639;BMP180;1641;51.306;12.384;2023-02-28T01:40:50;101488.00;;;3.00
24639;BMP180;1641;51.306;12.384;2023-02-28T01:43:22;101468.00;;;3.10
24639;BMP180;1641;51.306;12.384;2023-02-28T01:45:48;101468.00;;;3.00
24639;BMP180;1641;51.306;12.384;2023-02-28T01:48:14;101476.00;;;2.90
24639;BMP180;1641;51.306;12.384;2023-02-28T01:50:43;101475.00;;;3.00
24639;BMP180;1641;51.306;12.384;2023-02-28T01:53:14;101469.00;;;2.80
24639;BMP180;1641;51.306;12.384;2023-02-28T01:55:42;101472.00;;;2.80
24639;BMP180;1641;51.306;12.384;2023-02-28T01:58:09;101467.00;;;2.70
24639;BMP180;1641;51.306;12.384;2023-02-28T02:00:35;101463.00;;;2.60
24639;BMP180;1641;51.306;12.384;2023-02-28T02:03:08;101471.00;;;2.50
24639;BMP180;1641;51.306;12.384;2023-02-28T02:05:36;101432.00;;;2.40
24639;BMP180;1641;51.306;12.384;2023-02-28T02:08:05;101457.00;;;2.50
24639;BMP180;1641;51.306;12.384;2023-02-28T02:10:53;101448.00;;;2.60
24639;BMP180;1641;51.306;12.384;2023-02-28T02:18:46;101461.00;;;2.80
24639;BMP180;1641;51.306;12.384;2023-02-28T02:21:36;101459.00;;;3.00
24639;BMP180;1641;51.306;12.384;2023-02-28T02:27:08;101442.00;;;2.30
24639;BMP180;1641;51.306;12.384;2023-02-28T02:32:31;101446.00;;;2.60
24639;BMP180;1641;51.306;12.384;2023-02-28T02:38:11;101439.00;;;2.30
24639;BMP180;1641;51.306;12.384;2023-02-28T02:41:04;101447.00;;;2.60
24639;BMP180;1641;51.306;12.384;2023-02-28T02:43:36;101446.00;;;2.60
24639;BMP180;1641;51.306;12.384;2023-02-28T02:46:07;101442.00;;;2.30
24639;BMP180;1641;51.306;12.384;2023-02-28T02:48:35;101448.00;;;1.90
24639;BMP180;1641;51.306;12.384;2023-02-28T02:51:07;101447.00;;;2.20
24639;BMP180;1641;51.306;12.384;2023-02-28T02:53:42;101461.00;;;2.20
24639;BMP180;1641;51.306;12.384;2023-02-28T02:56:10;101457.00;;;2.20
24639;BMP180;1641;51.306;12.384;2023-02-28T02:58:40;101459.00;;;2.20
24639;BMP180;1641;51.306;12.384;2023-02-28T03:01:08;101448.00;;;2.40
24639;BMP180;1641;51.306;12.384;2023-02-28T03:03:35;101451.00;;;2.50
24639;BMP180;1641;51.306;12.384;2023-02-28T03:06:01;101454.00;;;2.50
24639;BMP180;1641;51.306;12.384;2023-02-28T03:08:29;101457.00;;;2.20
24639;BMP180;1641;51.306;12.384;2023-02-28T03:11:03;101456.00;;;2.30
24639;BMP180;1641;51.306;12.384;2023-02-28T03:13:54;101461.00;;;2.30
24639;BMP180;1641;51.306;12.384;2023-02-28T03:16:46;101457.00;;;2.10
24639;BMP180;1641;51.306;12.384;2023-02-28T03:19:30;101455.00;;;1.90
24639;BMP180;1641;51.306;12.384;2023-02-28T03:22:14;101459.00;;;1.90
24639;BMP180;1641;51.306;12.384;2023-02-28T03:24:50;101457.00;;;2.10
24639;BMP180;1641;51.306;12.384;2023-02-28T03:27:26;101457.00;;;1.80
24639;BMP180;1641;51.306;12.384;2023-02-28T03:30:06;101464.00;;;1.90
24639;BMP180;1641;51.306;12.384;2023-02-28T03:32:42;101463.00;;;2.00
24639;BMP180;1641;51.306;12.384;2023-02-28T03:35:19;101462.00;;;1.90
24639;BMP180;1641;51.306;12.384;2023-02-28T03:37:48;101456.00;;;1.70
24639;BMP180;1641;51.306;12.384;2023-02-28T03:40:17;101459.00;;;1.60
24639;BMP180;1641;51.306;12.384;2023-02-28T03:42:46;101463.00;;;1.60
24639;BMP180;1641;51.306;12.384;2023-02-28T03:45:16;101464.00;;;1.40
24639;BMP180;1641;51.306;12.384;2023-02-28T03:50:39;101450.00;;;1.90
24639;BMP180;1641;51.306;12.384;2023-02-28T03:53:16;101455.00;;;1.40
24639;BMP180;1641;51.306;12.384;2023-02-28T03:55:50;101430.00;;;1.40
24639;BMP180;1641;51.306;12.384;2023-02-28T03:58:35;101466.00;;;1.60
24639;BMP180;1641;51.306;12.384;2023-02-28T04:01:09;101462.00;;;1.50
24639;BMP180;1641;51.306;12.384;2023-02-28T04:03:41;101457.00;;;1.60
24639;BMP180;1641;51.306;12.384;2023-02-28T04:06:08;101460.00;;;1.50
24639;BMP180;1641;51.306;12.384;2023-02-28T04:08:37;101466.00;;;1.70
24639;BMP180;1641;51.306;12.384;2023-02-28T04:11:22;101468.00;;;1.50
24639;BMP180;1641;51.306;12.384;2023-02-28T04:13:49;101464.00;;;1.30
24639;BMP180;1641;51.306;12.384;2023-02-28T04:16:15;101462.00;;;1.20
24639;BMP180;1641;51.306;12.384;2023-02-28T04:18:41;101464.00;;;1.30
24639;BMP180;1641;51.306;12.384;2023-02-28T04:21:10;101464.00;;;1.40
24639;BMP180;1641;51.306;12.384;2023-02-28T04:23:36;101463.00;;;1.50
24639;BMP180;1641;51.306;12.384;2023-02-28T04:26:02;101464.00;;;1.70
24639;BMP180;1641;51.306;12.384;2023-02-28T04:28:27;101471.00;;;2.00
24639;BMP180;1641;51.306;12.384;2023-02-28T04:30:57;101461.00;;;1.80
24639;BMP180;1641;51.306;12.384;2023-02-28T04:33:23;101435.00;;;1.80
24639;BMP180;1641;51.306;12.384;2023-02-28T04:35:48;101478.00;;;1.70
24639;BMP180;1641;51.306;12.384;2023-02-28T04:38:13;101487.00;;;1.90
24639;BMP180;1641;51.306;12.384;2023-02-28T04:40:38;101464.00;;;2.00
24639;BMP180;1641;51.306;12.384;2023-02-28T04:43:04;101480.00;;;2.10
24639;BMP180;1641;51.306;12.384;2023-02-28T04:45:29;101472.00;;;2.00
24639;BMP180;1641;51.306;12.384;2023-02-28T04:47:57;101487.00;;;1.70
24639;BMP180;1641;51.306;12.384;2023-02-28T04:50:22;101471.00;;;1.50
24639;BMP180;1641;51.306;12.384;2023-02-28T04:52:47;101483.00;;;1.90
24639;BMP180;1641;51.306;12.384;2023-02-28T04:55:13;101475.00;;;2.00
24639;BMP180;1641;51.306;12.384;2023-02-28T04:57:38;101484.00;;;1.70
24639;BMP180;1641;51.306;12.384;2023-02-28T05:00:04;101483.00;;;1.40
24639;BMP180;1641;51.306;12.384;2023-02-28T05:02:35;101479.00;;;1.40
24639;BMP180;1641;51.306;12.384;2023-02-28T05:05:00;101467.00;;;1.50
24639;BMP180;1641;51.306;12.384;2023-02-28T05:07:25;101473.00;;;1.50
24639;BMP180;1641;51.306;12.384;2023-02-28T05:09:50;101475.00;;;1.70
24639;BMP180;1641;51.306;12.384;2023-02-28T05:12:16;101460.00;;;1.80
24639;BMP180;1641;51.306;12.384;2023-02-28T05:14:41;101470.00;;;1.60
24639;BMP180;1641;51.306;12.384;2023-02-28T05:17:06;101487.00;;;1.70
24639;BMP180;1641;51.306;12.384;2023-02-28T05:19:31;101412.00;;;1.80
24639;BMP180;1641;51.306;12.384;2023-02-28T05:21:57;101489.00;;;1.60
24639;BMP180;1641;51.306;12.384;2023-02-28T05:24:22;101492.00;;;1.60
24639;BMP180;1641;51.306;12.384;2023-02-28T05:26:49;101494.00;;;1.90
24639;BMP180;1641;51.306;12.384;2023-02-28T05:29:16;101493.00;;;2.20
24639;BMP180;1641;51.306;12.384;2023-02-28T05:31:41;101456.00;;;2.20
24639;BMP180;1641;51.306;12.384;2023-02-28T05:34:06;101489.00;;;2.30
24639;BMP180;1641;51.306;12.384;2023-02-28T05:36:33;101492.00;;;2.10
24639;BMP180;1641;51.306;12.384;2023-02-28T05:38:58;101486.00;;;2.10
24639;BMP180;1641;51.306;12.384;2023-02-28T05:41:24;101496.00;;;2.30
24639;BMP180;1641;51.306;12.384;2023-02-28T05:43:52;101442.00;;;2.20
24639;BMP180;1641;51.306;12.384;2023-02-28T05:46:17;101499.00;;;2.00
24639;BMP180;1641;51.306;12.384;2023-02-28T05:48:46;101498.00;;;2.10
24639;BMP180;1641;51.306;12.384;2023-02-28T05:51:12;101497.00;;;2.20
24639;BMP180;1641;51.306;12.384;2023-02-28T05:53:37;101502.00;;;2.10
24639;BMP180;1641;51.306;12.384;2023-02-28T05:56:03;101512.00;;;2.50
24639;BMP180;1641;51.306;12.384;2023-02-28T05:58:28;101510.00;;;2.50
24639;BMP180;1641;51.306;12.384;2023-02-28T06:00:56;101507.00;;;2.30
24639;BMP180;1641;51.306;12.384;2023-02-28T06:03:21;101514.00;;;2.30
24639;BMP180;1641;51.306;12.384;2023-02-28T06:05:47;101512.00;;;2.10
24639;BMP180;1641;51.306;12.384;2023-02-28T06:08:12;101522.00;;;2.00
24639;BMP180;1641;51.306;12.384;2023-02-28T06:10:38;101485.00;;;2.10
24639;BMP180;1641;51.306;12.384;2023-02-28T06:13:04;101500.00;;;2.10
24639;BMP180;1641;51.306;12.384;2023-02-28T06:15:29;101519.00;;;2.10
24639;BMP180;1641;51.306;12.384;2023-02-28T06:17:55;101499.00;;;2.10
24639;BMP180;1641;51.306;12.384;2023-02-28T06:20:24;101527.00;;;2.20
24639;BMP180;1641;51.306;12.384;2023-02-28T06:22:51;101531.00;;;2.50
24639;BMP180;1641;51.306;12.384;2023-02-28T06:25:17;101535.00;;;2.00
24639;BMP180;1641;51.306;12.384;2023-02-28T06:27:43;101538.00;;;1.90
24639;BMP180;1641;51.306;12.384;2023-02-28T06:30:09;101524.00;;;2.30
24639;BMP180;1641;51.306;12.384;2023-02-28T06:32:35;101540.00;;;2.30
24639;BMP180;1641;51.306;12.384;2023-02-28T06:35:01;101548.00;;;2.50
24639;BMP180;1641;51.306;12.384;2023-02-28T06:37:26;101553.00;;;2.90
24639;BMP180;1641;51.306;12.384;2023-02-28T06:39:54;101555.00;;;2.40
24639;BMP180;1641;51.306;12.384;2023-02-28T06:42:22;101552.00;;;2.00
24639;BMP180;1641;51.306;12.384;2023-02-28T06:44:49;101559.00;;;2.30
24639;BMP180;1641;51.306;12.384;2023-02-28T06:47:15;101561.00;;;1.90
24639;BMP180;1641;51.306;12.384;2023-02-28T06:49:40;101563.00;;;2.00
24639;BMP180;1641;51.306;12.384;2023-02-28T06:52:05;101560.00;;;1.90
24639;BMP180;1641;51.306;12.384;2023-02-28T06:54:30;101557.00;;;2.30
24639;BMP180;1641;51.306;12.384;2023-02-28T06:56:57;101551.00;;;2.10
24639;BMP180;1641;51.306;12.384;2023-02-28T06:59:23;101570.00;;;1.30
24639;BMP180;1641;51.306;12.384;2023-02-28T07:01:48;101571.00;;;1.30
24639;BMP180;1641;51.306;12.384;2023-02-28T07:04:13;101580.00;;;1.60
24639;BMP180;1641;51.306;12.384;2023-02-28T07:06:38;101577.00;;;1.40
24639;BMP180;1641;51.306;12.384;2023-02-28T07:09:04;101564.00;;;1.10
24639;BMP180;1641;51.306;12.384;2023-02-28T07:11:30;101562.00;;;1.30
24639;BMP180;1641;51.306;12.384;2023-02-28T07:13:56;101587.00;;;1.40
24639;BMP180;1641;51.306;12.384;2023-02-28T07:16:23;101579.00;;;1.50
24639;BMP180;1641;51.306;12.384;2023-02-28T07:18:49;101579.00;;;2.00
24639;BMP180;1641;51.306;12.384;2023-02-28T07:21:14;101575.00;;;2.00
24639;BMP180;1641;51.306;12.384;2023-02-28T07:23:40;101586.00;;;1.50
24639;BMP180;1641;51.306;12.384;2023-02-28T07:26:10;101577.00;;;2.20
24639;BMP180;1641;51.306;12.384;2023-02-28T07:28:36;101582.00;;;3.40
24639;BMP180;1641;51.306;12.384;2023-02-28T07:31:05;101582.00;;;3.80
24639;BMP180;1641;51.306;12.384;2023-02-28T07:33:31;101583.00;;;5.40
24639;BMP180;1641;51.306;12.384;2023-02-28T07:36:04;101588.00;;;7.30
24639;BMP180;1641;51.306;12.384;2023-02-28T07:38:30;101589.00;;;7.50
24639;BMP180;1641;51.306;12.384;2023-02-28T07:40:55;101592.00;;;6.00
24639;BMP180;1641;51.306;12.384;2023-02-28T07:43:20;101597.00;;;7.20
24639;BMP180;1641;51.306;12.384;2023-02-28T07:45:45;101589.00;;;6.60
24639;BMP180;1641;51.306;12.384;2023-02-28T07:48:11;101596.00;;;6.50
24639;BMP180;1641;51.306;12.384;2023-02-28T07:50:36;101583.00;;;7.40
24639;BMP180;1641;51.306;12.384;2023-02-28T07:53:01;101591.00;;;9.00
24639;BMP180;1641;51.306;12.384;2023-02-28T07:55:26;101589.00;;;7.90
24639;BMP180;1641;51.306;12.384;2023-02-28T07:57:51;101584.00;;;7.90
24639;BMP180;1641;51.306;12.384;2023-02-28T08:00:17;101571.00;;;7.70
24639;BMP180;1641;51.306;12.384;2023-02-28T08:02:42;101591.00;;;6.60
24639;BMP180;1641;51.306;12.384;2023-02-28T08:05:08;101590.00;;;6.30
24639;BMP180;1641;51.306;12.384;2023-02-28T08:07:33;101598.00;;;7.70
24639;BMP180;1641;51.306;12.384;2023-02-28T08:09:59;101596.00;;;7.90
24639;BMP180;1641;51.306;12.384;2023-02-28T08:12:24;101585.00;;;7.50
24639;BMP180;1641;51.306;12.384;2023-02-28T08:14:49;101574.00;;;5.50
24639;BMP180;1641;51.306;12.384;2023-02-28T08:17:15;101573.00;;;6.60
24639;BMP180;1641;51.306;12.384;2023-02-28T08:19:40;101586.00;;;5.90
24639;BMP180;1641;51.306;12.384;2023-02-28T08:22:05;101584.00;;;6.50
24639;BMP180;1641;51.306;12.384;2023-02-28T08:24:31;101587.00;;;8.70
24639;BMP180;1641;51.306;12.384;2023-02-28T08:26:56;101581.00;;;8.30
24639;BMP180;1641;51.306;12.384;2023-02-28T08:29:21;101591.00;;;9.10
24639;BMP180;1641;51.306;12.384;2023-02-28T08:31:47;101595.00;;;10.20
24639;BMP180;1641;51.306;12.384;2023-02-28T08:34:14;101584.00;;;10.60
24639;BMP180;1641;51.306;12.384;2023-02-28T08:36:40;101582.00;;;8.50
24639;BMP180;1641;51.306;12.384;2023-02-28T08:39:06;101591.00;;;8.70
24639;BMP180;1641;51.306;12.384;2023-02-28T08:41:32;101591.00;;;9.10
24639;BMP180;1641;51.306;12.384;2023-02-28T08:43:57;101583.00;;;7.40
24639;BMP180;1641;51.306;12.384;2023-02-28T08:46:23;101565.00;;;7.50
24639;BMP180;1641;51.306;12.384;2023-02-28T08:48:52;101590.00;;;7.80
24639;BMP180;1641;51.306;12.384;2023-02-28T08:51:18;101592.00;;;9.20
24639;BMP180;1641;51.306;12.384;2023-02-28T08:53:47;101599.00;;;9.60
24639;BMP180;1641;51.306;12.384;2023-02-28T08:56:15;101567.00;;;9.10
24639;BMP180;1641;51.306;12.384;2023-02-28T08:58:42;101600.00;;;8.10
24639;BMP180;1641;51.306;12.384;2023-02-28T09:01:13;101591.00;;;7.30
24639;BMP180;1641;51.306;12.384;2023-02-28T09:03:39;101599.00;;;8.10
24639;BMP180;1641;51.306;12.384;2023-02-28T09:06:05;101594.00;;;8.20
24639;BMP180;1641;51.306;12.384;2023-02-28T09:08:31;101592.00;;;9.10
24639;BMP180;1641;51.306;12.384;2023-02-28T09:10:57;101524.00;;;9.20
24639;BMP180;1641;51.306;12.384;2023-02-28T09:13:24;101598.00;;;8.80
24639;BMP180;1641;51.306;12.384;2023-02-28T09:15:49;101613.00;;;8.90
24639;BMP180;1641;51.306;12.384;2023-02-28T09:18:15;101603.00;;;11.00
24639;BMP180;1641;51.306;12.384;2023-02-28T09:20:41;101608.00;;;11.00
24639;BMP180;1641;51.306;12.384;2023-02-28T09:23:08;101584.00;;;10.90
24639;BMP180;1641;51.306;12.384;2023-02-28T09:25:34;101605.00;;;8.80
24639;BMP180;1641;51.306;12.384;2023-02-28T09:27:59;101607.00;;;7.90
24639;BMP180;1641;51.306;12.384;2023-02-28T09:30:25;101599.00;;;7.70
24639;BMP180;1641;51.306;12.384;2023-02-28T09:32:50;101615.00;;;7.60
24639;BMP180;1641;51.306;12.384;2023-02-28T09:35:19;101614.00;;;8.60
24639;BMP180;1641;51.306;12.384;2023-02-28T09:37:46;101592.00;;;6.00
24639;BMP180;1641;51.306;12.384;2023-02-28T09:40:12;101605.00;;;7.60
24639;BMP180;1641;51.306;12.384;2023-02-28T09:42:38;101615.00;;;8.50
24639;BMP180;1641;51.306;12.384;2023-02-28T09:45:17;101608.00;;;7.70
24639;BMP180;1641;51.306;12.384;2023-02-28T09:47:46;101604.00;;;6.90
24639;BMP180;1641;51.306;12.384;2023-02-28T09:52:50;101607.00;;;5.00
24639;BMP180;1641;51.306;12.384;2023-02-28T09:55:25;101620.00;;;5.60
24639;BMP180;1641;51.306;12.384;2023-02-28T09:57:54;101560.00;;;4.10
24639;BMP180;1641;51.306;12.384;2023-02-28T10:00:24;101613.00;;;4.70
24639;BMP180;1641;51.306;12.384;2023-02-28T10:03:28;101621.00;;;4.50
24639;BMP180;1641;51.306;12.384;2023-02-28T10:06:11;101612.00;;;4.30
24639;BMP180;1641;51.306;12.384;2023-02-28T10:08:42;101600.00;;;4.30
24639;BMP180;1641;51.306;12.384;2023-02-28T10:11:14;101576.00;;;4.50
24639;BMP180;1641;51.306;12.384;2023-02-28T10:13:51;101599.00;;;4.10
24639;BMP180;1641;51.306;12.384;2023-02-28T10:16:24;101608.00;;;4.20
24639;BMP180;1641;51.306;12.384;2023-02-28T10:18:54;101598.00;;;4.70
24639;BMP180;1641;51.306;12.384;2023-02-28T10:21:28;101603.00;;;4.40
24639;BMP180;1641;51.306;12.384;2023-02-28T10:24:03;101606.00;;;4.80
24639;BMP180;1641;51.306;12.384;2023-02-28T10:26:31;101617.00;;;3.90
24639;BMP180;1641;51.306;12.384;2023-02-28T10:28:57;101575.00;;;4.30
24639;BMP180;1641;51.306;12.384;2023-02-28T10:31:22;101593.00;;;4.20
24639;BMP180;1641;51.306;12.384;2023-02-28T10:33:48;101601.00;;;4.80
24639;BMP180;1641;51.306;12.384;2023-02-28T10:36:19;101595.00;;;4.40
24639;BMP180;1641;51.306;12.384;2023-02-28T10:38:46;101599.00;;;4.70
24639;BMP180;1641;51.306;12.384;2023-02-28T10:41:16;101532.00;;;4.40
24639;BMP180;1641;51.306;12.384;2023-02-28T10:43:43;101586.00;;;4.40
24639;BMP180;1641;51.306;12.384;2023-02-28T10:46:15;101600.00;;;4.50
24639;BMP180;1641;51.306;12.384;2023-02-28T10:51:35;101572.00;;;4.20
24639;BMP180;1641;51.306;12.384;2023-02-28T10:54:02;101595.00;;;4.10
24639;BMP180;1641;51.306;12.384;2023-02-28T10:56:28;101592.00;;;4.20
24639;BMP180;1641;51.306;12.384;2023-02-28T11:03:59;101551.00;;;4.10
24639;BMP180;1641;51.306;12.384;2023-02-28T11:06:28;101558.00;;;4.70
24639;BMP180;1641;51.306;12.384;2023-02-28T11:09:15;101568.00;;;4.90
24639;BMP180;1641;51.306;12.384;2023-02-28T11:11:45;101567.00;;;4.20
24639;BMP180;1641;51.306;12.384;2023-02-28T11:14:23;101534.00;;;4.70
24639;BMP180;1641;51.306;12.384;2023-02-28T11:16:50;101548.00;;;4.90
24639;BMP180;1641;51.306;12.384;2023-02-28T11:19:28;101563.00;;;4.80
24639;BMP180;1641;51.306;12.384;2023-02-28T11:21:57;101557.00;;;4.40
24639;BMP180;1641;51.306;12.384;2023-02-28T11:24:27;101557.00;;;4.90
24639;BMP180;1641;51.306;12.384;2023-02-28T11:26:57;101553.00;;;4.70
24639;BMP180;1641;51.306;12.384;2023-02-28T11:29:25;101557.00;;;4.80
24639;BMP180;1641;51.306;12.384;2023-02-28T11:32:19;101551.00;;;4.70
24639;BMP180;1641;51.306;12.384;2023-02-28T11:34:46;101561.00;;;5.20
24639;BMP180;1641;51.306;12.384;2023-02-28T11:37:19;101496.00;;;5.60
24639;BMP180;1641;51.306;12.384;2023-02-28T11:39:45;101559.00;;;5.60
24639;BMP180;1641;51.306;12.384;2023-02-28T11:42:42;101552.00;;;4.90
24639;BMP180;1641;51.306;12.384;2023-02-28T11:53:19;101565.00;;;4.60
24639;BMP180;1641;51.306;12.384;2023-02-28T11:56:16;101565.00;;;4.60
24639;BMP180;1641;51.306;12.384;2023-02-28T12:01:57;101553.00;;;4.80
24639;BMP180;1641;51.306;12.384;2023-02-28T12:04:42;101510.00;;;4.90
24639;BMP180;1641;51.306;12.384;2023-02-28T12:07:40;101544.00;;;4.60
24639;BMP180;1641;51.306;12.384;2023-02-28T12:10:20;101547.00;;;4.90
24639;BMP180;1641;51.306;12.384;2023-02-28T12:13:36;101545.00;;;4.30
24639;BMP180;1641;51.306;12.384;2023-02-28T12:15:55;101537.00;;;4.70
24639;BMP180;1641;51.306;12.384;2023-02-28T12:21:36;101524.00;;;5.30
24639;BMP180;1641;51.306;12.384;2023-02-28T12:26:44;101535.00;;;4.60
24639;BMP180;1641;51.306;12.384;2023-02-28T12:29:29;101531.00;;;5.10
24639;BMP180;1641;51.306;12.384;2023-02-28T12:34:35;101531.00;;;4.80
24639;BMP180;1641;51.306;12.384;2023-02-28T12:37:13;101526.00;;;5.20
24639;BMP180;1641;51.306;12.384;2023-02-28T12:40:00;101512.00;;;5.10
24639;BMP180;1641;51.306;12.384;2023-02-28T12:42:33;101518.00;;;5.10
24639;BMP180;1641;51.306;12.384;2023-02-28T12:45:05;101526.00;;;5.10
24639;BMP180;1641;51.306;12.384;2023-02-28T12:47:34;101520.00;;;5.10
24639;BMP180;1641;51.306;12.384;2023-02-28T12:50:08;101507.00;;;5.10
24639;BMP180;1641;51.306;12.384;2023-02-28T12:53:13;101508.00;;;5.40
24639;BMP180;1641;51.306;12.384;2023-02-28T12:56:09;101494.00;;;5.40
24639;BMP180;1641;51.306;12.384;2023-02-28T12:59:09;101447.00;;;5.80
24639;BMP180;1641;51.306;12.384;2023-02-28T13:01:57;101502.00;;;5.10
24639;BMP180;1641;51.306;12.384;2023-02-28T13:10:11;101492.00;;;4.50
24639;BMP180;1641;51.306;12.384;2023-02-28T13:12:51;101493.00;;;5.00
24639;BMP180;1641;51.306;12.384;2023-02-28T13:17:48;101496.00;;;4.90
24639;BMP180;1641;51.306;12.384;2023-02-28T13:20:20;101485.00;;;5.40
24639;BMP180;1641;51.306;12.384;2023-02-28T13:22:52;101494.00;;;5.40
24639;BMP180;1641;51.306;12.384;2023-02-28T13:27:59;101492.00;;;5.60
24639;BMP180;1641;51.306;12.384;2023-02-28T13:33:32;101490.00;;;4.90
24639;BMP180;1641;51.306;12.384;2023-02-28T13:38:49;101488.00;;;5.40
24639;BMP180;1641;51.306;12.384;2023-02-28T13:49:29;101466.00;;;5.50
24639;BMP180;1641;51.306;12.384;2023-02-28T13:57:42;101487.00;;;5.10
24639;BMP180;1641;51.306;12.384;2023-02-28T14:00:54;101478.00;;;5.00
24639;BMP180;1641;51.306;12.384;2023-02-28T14:03:45;101473.00;;;5.40
24639;BMP180;1641;51.306;12.384;2023-02-28T14:06:23;101471.00;;;5.10
24639;BMP180;1641;51.306;12.384;2023-02-28T14:08:55;101461.00;;;5.40
24639;BMP180;1641;51.306;12.384;2023-02-28T14:11:43;101462.00;;;5.60
24639;BMP180;1641;51.306;12.384;2023-02-28T14:17:12;101433.00;;;5.40
24639;BMP180;1641;51.306;12.384;2023-02-28T14:19:45;101466.00;;;5.50
24639;BMP180;1641;51.306;12.384;2023-02-28T14:24:56;101458.00;;;5.40
24639;BMP180;1641;51.306;12.384;2023-02-28T14:27:42;101459.00;;;5.60
24639;BMP180;1641;51.306;12.384;2023-02-28T14:33:18;101467.00;;;5.80
24639;BMP180;1641;51.306;12.384;2023-02-28T14:38:54;101464.00;;;5.80
24639;BMP180;1641;51.306;12.384;2023-02-28T14:41:30;101461.00;;;5.60
24639;BMP180;1641;51.306;12.384;2023-02-28T14:44:14;101458.00;;;5.40
24639;BMP180;1641;51.306;12.384;2023-02-28T14:46:52;101466.00;;;5.30
24639;BMP180;1641;51.306;12.384;2023-02-28T14:49:31;101465.00;;;5.40
24639;BMP180;1641;51.306;12.384;2023-02-28T14:52:17;101460.00;;;5.80
24639;BMP180;1641;51.306;12.384;2023-02-28T14:54:44;101460.00;;;5.70
24639;BMP180;1641;51.306;12.384;2023-02-28T14:57:28;101451.00;;;5.90
24639;BMP180;1641;51.306;12.384;2023-02-28T15:00:18;101446.00;;;6.00
24639;BMP180;1641;51.306;12.384;2023-02-28T15:02:45;101450.00;;;5.50
24639;BMP180;1641;51.306;12.384;2023-02-28T15:07:42;101446.00;;;5.10
24639;BMP180;1641;51.306;12.384;2023-02-28T15:10:25;101445.00;;;5.10
24639;BMP180;1641;51.306;12.384;2023-02-28T15:12:54;101422.00;;;5.30
24639;BMP180;1641;51.306;12.384;2023-02-28T15:15:26;101446.00;;;5.30
24639;BMP180;1641;51.306;12.384;2023-02-28T15:17:56;101436.00;;;5.60
24639;BMP180;1641;51.306;12.384;2023-02-28T15:20:23;101439.00;;;5.80
24639;BMP180;1641;51.306;12.384;2023-02-28T15:22:55;101441.00;;;5.70
24639;BMP180;1641;51.306;12.384;2023-02-28T15:25:21;101412.00;;;5.30
24639;BMP180;1641;51.306;12.384;2023-02-28T15:27:53;101385.00;;;5.40
24639;BMP180;1641;51.306;12.384;2023-02-28T15:30:27;101452.00;;;5.20
24639;BMP180;1641;51.306;12.384;2023-02-28T15:33:26;101440.00;;;4.80
24639;BMP180;1641;51.306;12.384;2023-02-28T15:36:04;101443.00;;;4.90
24639;BMP180;1641;51.306;12.384;2023-02-28T15:38:35;101442.00;;;5.20
24639;BMP180;1641;51.306;12.384;2023-02-28T15:41:23;101442.00;;;5.30
24639;BMP180;1641;51.306;12.384;2023-02-28T15:43:49;101455.00;;;5.20
24639;BMP180;1641;51.306;12.384;2023-02-28T15:46:14;101464.00;;;5.00
24639;BMP180;1641;51.306;12.384;2023-02-28T15:48:54;101449.00;;;5.20
24639;BMP180;1641;51.306;12.384;2023-02-28T15:51:29;101458.00;;;5.40
24639;BMP180;1641;51.306;12.384;2023-02-28T15:53:59;101436.00;;;5.10
24639;BMP180;1641;51.306;12.384;2023-02-28T15:56:31;101458.00;;;4.80
24639;BMP180;1641;51.306;12.384;2023-02-28T15:59:02;101455.00;;;5.20